Cannock, United Kingdom
Current Conditions -  °F | °C
As of 9:20 AM on Friday 28 Nov 2014 (Local Time) from EGBB Reporting Station
Broken Clouds Broken Clouds  
Wind Chill: 50°   Ceiling: 900
Heat Index: 50°   Visibility: 4mi
Dew Point: 48°   Wind: 8mph
Humidity: 94%   Direction: 80°E
Pressure: 29.62"   Gusts: NA
Location:  52.69°N, 2.03°W
Report Text: EGBB 280920Z 08007KT 030V110 6000 BKN009 BKN024 10/09 Q1003
Loading
Personal Weather Stations






























Interactive Weather Map New forecast layout! Learn more

10-Day Weather Forecast

Advertisements
Track Severe Weather on mobile